sensor_id;sensor_type;location;lat;lon;timestamp;pressure;altitude;pressure_sealevel;temperature;humidity
38289;BME280;24092;53.370;-6.588;2023-02-14T00:01:17;101942.68;;;4.01;100.00
38289;BME280;24092;53.370;-6.588;2023-02-14T00:03:44;101938.60;;;4.49;100.00
38289;BME280;24092;53.370;-6.588;2023-02-14T00:06:12;101937.26;;;4.26;100.00
38289;BME280;24092;53.370;-6.588;2023-02-14T00:08:41;101936.48;;;5.08;100.00
38289;BME280;24092;53.370;-6.588;2023-02-14T00:11:08;101934.16;;;4.81;100.00
38289;BME280;24092;53.370;-6.588;2023-02-14T00:13:34;101931.70;;;4.91;100.00
38289;BME280;24092;53.370;-6.588;2023-02-14T00:16:01;101934.29;;;4.91;100.00
38289;BME280;24092;53.370;-6.588;2023-02-14T00:18:28;101934.49;;;4.96;100.00
38289;BME280;24092;53.370;-6.588;2023-02-14T00:20:58;101928.73;;;5.27;100.00
38289;BME280;24092;53.370;-6.588;2023-02-14T00:23:25;101920.95;;;4.91;100.00
38289;BME280;24092;53.370;-6.588;2023-02-14T00:25:53;101927.91;;;5.52;100.00
38289;BME280;24092;53.370;-6.588;2023-02-14T00:28:20;101920.46;;;5.08;100.00
38289;BME280;24092;53.370;-6.588;2023-02-14T00:30:46;101921.09;;;5.10;100.00
38289;BME280;24092;53.370;-6.588;2023-02-14T00:33:13;101919.23;;;5.10;100.00
38289;BME280;24092;53.370;-6.588;2023-02-14T00:35:41;101921.60;;;5.53;100.00
38289;BME280;24092;53.370;-6.588;2023-02-14T00:38:08;101924.69;;;5.09;100.00
38289;BME280;24092;53.370;-6.588;2023-02-14T00:42:16;101916.90;;;5.47;100.00
38289;BME280;24092;53.370;-6.588;2023-02-14T00:44:43;101917.07;;;5.92;100.00
38289;BME280;24092;53.370;-6.588;2023-02-14T00:47:10;101919.04;;;5.60;100.00
38289;BME280;24092;53.370;-6.588;2023-02-14T00:49:37;101923.99;;;5.39;100.00
38289;BME280;24092;53.370;-6.588;2023-02-14T00:52:04;101911.42;;;5.54;100.00
38289;BME280;24092;53.370;-6.588;2023-02-14T00:54:31;101914.25;;;5.50;100.00
38289;BME280;24092;53.370;-6.588;2023-02-14T00:56:59;101912.07;;;4.61;100.00
38289;BME280;24092;53.370;-6.588;2023-02-14T00:59:26;101907.66;;;2.64;100.00
38289;BME280;24092;53.370;-6.588;2023-02-14T01:01:53;101898.68;;;3.70;100.00
38289;BME280;24092;53.370;-6.588;2023-02-14T01:04:20;101900.56;;;3.77;100.00
38289;BME280;24092;53.370;-6.588;2023-02-14T01:06:47;101897.91;;;4.57;100.00
38289;BME280;24092;53.370;-6.588;2023-02-14T01:09:15;101895.24;;;5.84;100.00
38289;BME280;24092;53.370;-6.588;2023-02-14T01:11:42;101901.73;;;4.92;100.00
38289;BME280;24092;53.370;-6.588;2023-02-14T01:14:08;101894.00;;;3.49;100.00
38289;BME280;24092;53.370;-6.588;2023-02-14T01:16:37;101892.41;;;3.23;100.00
38289;BME280;24092;53.370;-6.588;2023-02-14T01:19:05;101894.34;;;2.53;100.00
38289;BME280;24092;53.370;-6.588;2023-02-14T01:21:33;101893.72;;;2.77;100.00
38289;BME280;24092;53.370;-6.588;2023-02-14T01:24:03;101893.10;;;2.09;100.00
38289;BME280;24092;53.370;-6.588;2023-02-14T01:26:30;101890.14;;;1.36;100.00
38289;BME280;24092;53.370;-6.588;2023-02-14T01:28:58;101888.20;;;0.17;100.00
38289;BME280;24092;53.370;-6.588;2023-02-14T01:31:27;101890.81;;;1.77;100.00
38289;BME280;24092;53.370;-6.588;2023-02-14T01:33:55;101887.24;;;1.86;100.00
38289;BME280;24092;53.370;-6.588;2023-02-14T01:36:25;101878.50;;;0.61;100.00
38289;BME280;24092;53.370;-6.588;2023-02-14T01:38:56;101873.26;;;0.95;100.00
38289;BME280;24092;53.370;-6.588;2023-02-14T01:41:26;101876.36;;;0.87;100.00
38289;BME280;24092;53.370;-6.588;2023-02-14T01:43:57;101876.11;;;1.66;100.00
38289;BME280;24092;53.370;-6.588;2023-02-14T01:46:27;101867.62;;;0.81;100.00
38289;BME280;24092;53.370;-6.588;2023-02-14T01:48:59;101865.20;;;-0.03;100.00
38289;BME280;24092;53.370;-6.588;2023-02-14T01:51:27;101861.68;;;0.57;100.00
38289;BME280;24092;53.370;-6.588;2023-02-14T01:53:56;101858.12;;;1.06;100.00
38289;BME280;24092;53.370;-6.588;2023-02-14T01:56:27;101853.77;;;0.16;100.00
38289;BME280;24092;53.370;-6.588;2023-02-14T01:58:57;101852.49;;;-0.20;100.00
38289;BME280;24092;53.370;-6.588;2023-02-14T02:01:27;101854.70;;;1.54;100.00
38289;BME280;24092;53.370;-6.588;2023-02-14T02:03:57;101846.98;;;2.63;100.00
38289;BME280;24092;53.370;-6.588;2023-02-14T02:06:30;101839.76;;;2.27;100.00
38289;BME280;24092;53.370;-6.588;2023-02-14T02:09:06;101834.10;;;3.65;100.00
38289;BME280;24092;53.370;-6.588;2023-02-14T02:11:34;101833.79;;;4.71;100.00
38289;BME280;24092;53.370;-6.588;2023-02-14T02:14:01;101837.99;;;4.48;100.00
38289;BME280;24092;53.370;-6.588;2023-02-14T02:16:44;101837.96;;;3.26;100.00
38289;BME280;24092;53.370;-6.588;2023-02-14T02:19:39;101841.34;;;3.98;100.00
38289;BME280;24092;53.370;-6.588;2023-02-14T02:22:32;101836.36;;;4.36;100.00
38289;BME280;24092;53.370;-6.588;2023-02-14T02:25:14;101833.23;;;2.02;100.00
38289;BME280;24092;53.370;-6.588;2023-02-14T02:28:03;101835.54;;;2.30;100.00
38289;BME280;24092;53.370;-6.588;2023-02-14T02:30:50;101832.24;;;1.45;100.00
38289;BME280;24092;53.370;-6.588;2023-02-14T02:35:57;101829.88;;;1.14;100.00
38289;BME280;24092;53.370;-6.588;2023-02-14T02:38:42;101826.58;;;0.42;100.00
38289;BME280;24092;53.370;-6.588;2023-02-14T02:41:20;101821.57;;;3.02;100.00
38289;BME280;24092;53.370;-6.588;2023-02-14T02:43:55;101817.11;;;1.07;100.00
38289;BME280;24092;53.370;-6.588;2023-02-14T02:46:33;101818.40;;;-0.27;100.00
38289;BME280;24092;53.370;-6.588;2023-02-14T02:49:07;101820.38;;;-0.15;100.00
38289;BME280;24092;53.370;-6.588;2023-02-14T02:51:43;101822.29;;;0.59;100.00
38289;BME280;24092;53.370;-6.588;2023-02-14T02:54:17;101818.67;;;0.81;100.00
38289;BME280;24092;53.370;-6.588;2023-02-14T02:56:51;101810.03;;;-1.67;100.00
38289;BME280;24092;53.370;-6.588;2023-02-14T02:59:22;101812.55;;;-1.53;100.00
38289;BME280;24092;53.370;-6.588;2023-02-14T03:01:55;101807.66;;;-2.89;100.00
38289;BME280;24092;53.370;-6.588;2023-02-14T03:04:25;101803.91;;;-3.01;100.00
38289;BME280;24092;53.370;-6.588;2023-02-14T03:06:55;101805.39;;;-0.92;100.00
38289;BME280;24092;53.370;-6.588;2023-02-14T03:09:58;101801.90;;;0.50;100.00
38289;BME280;24092;53.370;-6.588;2023-02-14T03:13:03;101801.83;;;-0.05;100.00
38289;BME280;24092;53.370;-6.588;2023-02-14T03:15:46;101799.84;;;1.42;100.00
38289;BME280;24092;53.370;-6.588;2023-02-14T03:18:28;101790.53;;;-3.40;100.00
38289;BME280;24092;53.370;-6.588;2023-02-14T03:21:05;101792.32;;;-0.00;100.00
38289;BME280;24092;53.370;-6.588;2023-02-14T03:23:38;101780.74;;;-2.08;100.00
38289;BME280;24092;53.370;-6.588;2023-02-14T03:26:13;101772.21;;;-0.75;100.00
38289;BME280;24092;53.370;-6.588;2023-02-14T03:28:46;101778.95;;;2.14;100.00
38289;BME280;24092;53.370;-6.588;2023-02-14T03:31:21;101775.21;;;1.54;100.00
38289;BME280;24092;53.370;-6.588;2023-02-14T03:33:55;101768.97;;;0.43;100.00
38289;BME280;24092;53.370;-6.588;2023-02-14T03:36:28;101769.30;;;-1.01;100.00
38289;BME280;24092;53.370;-6.588;2023-02-14T03:39:04;101773.04;;;1.90;100.00
38289;BME280;24092;53.370;-6.588;2023-02-14T03:41:36;101765.28;;;-0.53;100.00
38289;BME280;24092;53.370;-6.588;2023-02-14T03:44:08;101767.93;;;0.96;100.00
38289;BME280;24092;53.370;-6.588;2023-02-14T03:46:39;101767.23;;;-0.00;100.00
38289;BME280;24092;53.370;-6.588;2023-02-14T03:49:12;101767.90;;;0.33;100.00
38289;BME280;24092;53.370;-6.588;2023-02-14T03:51:41;101768.81;;;0.69;100.00
38289;BME280;24092;53.370;-6.588;2023-02-14T03:54:11;101777.20;;;-0.61;100.00
38289;BME280;24092;53.370;-6.588;2023-02-14T03:56:42;101777.84;;;0.87;100.00
38289;BME280;24092;53.370;-6.588;2023-02-14T03:59:15;101780.74;;;1.88;100.00
38289;BME280;24092;53.370;-6.588;2023-02-14T04:01:47;101770.76;;;1.14;100.00
38289;BME280;24092;53.370;-6.588;2023-02-14T04:04:19;101764.15;;;0.31;100.00
38289;BME280;24092;53.370;-6.588;2023-02-14T04:06:47;101758.95;;;-1.66;100.00
38289;BME280;24092;53.370;-6.588;2023-02-14T04:09:15;101755.53;;;-0.47;100.00
38289;BME280;24092;53.370;-6.588;2023-02-14T04:11:43;101753.05;;;0.09;100.00
38289;BME280;24092;53.370;-6.588;2023-02-14T04:14:11;101753.90;;;0.96;100.00
38289;BME280;24092;53.370;-6.588;2023-02-14T04:16:37;101750.93;;;2.04;100.00
38289;BME280;24092;53.370;-6.588;2023-02-14T04:19:04;101748.00;;;0.76;100.00
38289;BME280;24092;53.370;-6.588;2023-02-14T04:21:32;101744.99;;;1.77;100.00
38289;BME280;24092;53.370;-6.588;2023-02-14T04:23:59;101741.86;;;2.03;100.00
38289;BME280;24092;53.370;-6.588;2023-02-14T04:26:26;101732.71;;;-0.24;100.00
38289;BME280;24092;53.370;-6.588;2023-02-14T04:28:53;101736.87;;;-1.14;100.00
38289;BME280;24092;53.370;-6.588;2023-02-14T04:31:20;101746.58;;;1.54;100.00
38289;BME280;24092;53.370;-6.588;2023-02-14T04:33:48;101744.73;;;1.91;100.00
38289;BME280;24092;53.370;-6.588;2023-02-14T04:36:15;101746.18;;;3.76;100.00
38289;BME280;24092;53.370;-6.588;2023-02-14T04:38:42;101738.09;;;3.28;100.00
38289;BME280;24092;53.370;-6.588;2023-02-14T04:41:09;101733.77;;;4.91;100.00
38289;BME280;24092;53.370;-6.588;2023-02-14T04:43:36;101727.14;;;4.98;100.00
38289;BME280;24092;53.370;-6.588;2023-02-14T04:46:03;101726.05;;;5.14;100.00
38289;BME280;24092;53.370;-6.588;2023-02-14T04:48:30;101727.08;;;4.80;100.00
38289;BME280;24092;53.370;-6.588;2023-02-14T04:50:58;101720.24;;;4.66;100.00
38289;BME280;24092;53.370;-6.588;2023-02-14T04:53:25;101713.88;;;4.42;100.00
38289;BME280;24092;53.370;-6.588;2023-02-14T04:55:52;101712.79;;;4.54;100.00
38289;BME280;24092;53.370;-6.588;2023-02-14T04:58:19;101703.17;;;4.10;100.00
38289;BME280;24092;53.370;-6.588;2023-02-14T05:00:47;101707.03;;;4.36;100.00
38289;BME280;24092;53.370;-6.588;2023-02-14T05:03:15;101702.50;;;3.96;100.00
38289;BME280;24092;53.370;-6.588;2023-02-14T05:05:41;101705.33;;;4.14;100.00
38289;BME280;24092;53.370;-6.588;2023-02-14T05:08:08;101708.68;;;3.69;100.00
38289;BME280;24092;53.370;-6.588;2023-02-14T05:10:35;101714.32;;;4.27;100.00
38289;BME280;24092;53.370;-6.588;2023-02-14T05:13:02;101714.92;;;4.12;100.00
38289;BME280;24092;53.370;-6.588;2023-02-14T05:15:30;101719.49;;;3.59;100.00
38289;BME280;24092;53.370;-6.588;2023-02-14T05:17:57;101715.05;;;4.41;100.00
38289;BME280;24092;53.370;-6.588;2023-02-14T05:20:25;101708.12;;;4.11;100.00
38289;BME280;24092;53.370;-6.588;2023-02-14T05:22:52;101712.90;;;4.55;100.00
38289;BME280;24092;53.370;-6.588;2023-02-14T05:25:19;101722.16;;;4.24;100.00
38289;BME280;24092;53.370;-6.588;2023-02-14T05:27:46;101723.42;;;4.56;100.00
38289;BME280;24092;53.370;-6.588;2023-02-14T05:30:14;101722.11;;;4.20;100.00
38289;BME280;24092;53.370;-6.588;2023-02-14T05:32:41;101714.68;;;4.90;100.00
38289;BME280;24092;53.370;-6.588;2023-02-14T05:35:08;101720.77;;;4.65;100.00
38289;BME280;24092;53.370;-6.588;2023-02-14T05:37:35;101722.07;;;4.78;100.00
38289;BME280;24092;53.370;-6.588;2023-02-14T05:40:03;101712.92;;;4.47;100.00
38289;BME280;24092;53.370;-6.588;2023-02-14T05:42:31;101710.20;;;4.43;100.00
38289;BME280;24092;53.370;-6.588;2023-02-14T05:44:58;101711.12;;;4.14;100.00
38289;BME280;24092;53.370;-6.588;2023-02-14T05:47:25;101708.33;;;4.30;100.00
38289;BME280;24092;53.370;-6.588;2023-02-14T05:49:52;101706.16;;;5.44;100.00
38289;BME280;24092;53.370;-6.588;2023-02-14T05:52:19;101702.29;;;5.68;100.00
38289;BME280;24092;53.370;-6.588;2023-02-14T05:54:46;101701.69;;;5.69;100.00
38289;BME280;24092;53.370;-6.588;2023-02-14T05:57:13;101701.91;;;5.83;100.00
38289;BME280;24092;53.370;-6.588;2023-02-14T05:59:41;101701.99;;;5.65;100.00
38289;BME280;24092;53.370;-6.588;2023-02-14T06:02:08;101707.74;;;5.16;100.00
38289;BME280;24092;53.370;-6.588;2023-02-14T06:04:35;101702.12;;;5.11;100.00
38289;BME280;24092;53.370;-6.588;2023-02-14T06:07:02;101694.05;;;4.88;100.00
38289;BME280;24092;53.370;-6.588;2023-02-14T06:09:30;101691.13;;;4.68;100.00
38289;BME280;24092;53.370;-6.588;2023-02-14T06:11:56;101692.74;;;4.57;100.00
38289;BME280;24092;53.370;-6.588;2023-02-14T06:14:23;101691.44;;;4.47;100.00
38289;BME280;24092;53.370;-6.588;2023-02-14T06:16:51;101691.55;;;4.55;100.00
38289;BME280;24092;53.370;-6.588;2023-02-14T06:19:18;101691.46;;;4.38;100.00
38289;BME280;24092;53.370;-6.588;2023-02-14T06:21:45;101691.98;;;4.48;100.00
38289;BME280;24092;53.370;-6.588;2023-02-14T06:24:13;101695.75;;;4.10;100.00
38289;BME280;24092;53.370;-6.588;2023-02-14T06:26:41;101693.76;;;4.22;100.00
38289;BME280;24092;53.370;-6.588;2023-02-14T06:29:08;101689.92;;;4.06;100.00
38289;BME280;24092;53.370;-6.588;2023-02-14T06:31:35;101694.46;;;4.87;100.00
38289;BME280;24092;53.370;-6.588;2023-02-14T06:34:03;101693.75;;;4.39;100.00
38289;BME280;24092;53.370;-6.588;2023-02-14T06:36:30;101701.33;;;4.57;100.00
38289;BME280;24092;53.370;-6.588;2023-02-14T06:38:57;101701.80;;;4.65;100.00
38289;BME280;24092;53.370;-6.588;2023-02-14T06:41:24;101701.58;;;4.24;100.00
38289;BME280;24092;53.370;-6.588;2023-02-14T06:43:52;101701.22;;;4.43;100.00
38289;BME280;24092;53.370;-6.588;2023-02-14T06:46:19;101703.52;;;4.51;100.00
38289;BME280;24092;53.370;-6.588;2023-02-14T06:48:47;101694.65;;;4.72;100.00
38289;BME280;24092;53.370;-6.588;2023-02-14T06:51:14;101690.52;;;4.72;100.00
38289;BME280;24092;53.370;-6.588;2023-02-14T06:53:41;101686.93;;;4.46;100.00
38289;BME280;24092;53.370;-6.588;2023-02-14T06:56:08;101685.86;;;4.61;100.00
38289;BME280;24092;53.370;-6.588;2023-02-14T06:58:35;101686.29;;;4.47;100.00
38289;BME280;24092;53.370;-6.588;2023-02-14T07:01:03;101687.98;;;4.30;100.00
38289;BME280;24092;53.370;-6.588;2023-02-14T07:03:30;101691.59;;;4.45;100.00
38289;BME280;24092;53.370;-6.588;2023-02-14T07:05:57;101693.68;;;4.38;100.00
38289;BME280;24092;53.370;-6.588;2023-02-14T07:08:24;101695.17;;;4.59;100.00
38289;BME280;24092;53.370;-6.588;2023-02-14T07:10:55;101697.54;;;4.52;100.00
38289;BME280;24092;53.370;-6.588;2023-02-14T07:13:23;101696.26;;;4.67;100.00
38289;BME280;24092;53.370;-6.588;2023-02-14T07:15:50;101700.97;;;4.83;100.00
38289;BME280;24092;53.370;-6.588;2023-02-14T07:18:17;101702.14;;;4.42;100.00
38289;BME280;24092;53.370;-6.588;2023-02-14T07:20:44;101700.88;;;4.56;100.00
38289;BME280;24092;53.370;-6.588;2023-02-14T07:23:11;101706.16;;;4.82;100.00
38289;BME280;24092;53.370;-6.588;2023-02-14T07:25:38;101699.23;;;4.96;100.00
38289;BME280;24092;53.370;-6.588;2023-02-14T07:28:05;101704.79;;;4.57;100.00
38289;BME280;24092;53.370;-6.588;2023-02-14T07:30:37;101704.31;;;4.77;100.00
38289;BME280;24092;53.370;-6.588;2023-02-14T07:33:04;101709.11;;;4.61;100.00
38289;BME280;24092;53.370;-6.588;2023-02-14T07:35:31;101711.55;;;4.98;100.00
38289;BME280;24092;53.370;-6.588;2023-02-14T07:37:58;101710.88;;;5.09;100.00
38289;BME280;24092;53.370;-6.588;2023-02-14T07:40:26;101710.30;;;5.29;100.00
38289;BME280;24092;53.370;-6.588;2023-02-14T07:42:53;101717.69;;;5.15;100.00
38289;BME280;24092;53.370;-6.588;2023-02-14T07:45:22;101713.69;;;5.25;100.00
38289;BME280;24092;53.370;-6.588;2023-02-14T07:47:50;101719.97;;;5.11;100.00
38289;BME280;24092;53.370;-6.588;2023-02-14T07:50:18;101720.87;;;5.18;100.00
38289;BME280;24092;53.370;-6.588;2023-02-14T07:52:46;101712.93;;;5.38;100.00
38289;BME280;24092;53.370;-6.588;2023-02-14T07:55:13;101715.29;;;5.60;100.00
38289;BME280;24092;53.370;-6.588;2023-02-14T07:57:40;101714.70;;;5.30;100.00
38289;BME280;24092;53.370;-6.588;2023-02-14T08:00:08;101727.94;;;5.17;100.00
38289;BME280;24092;53.370;-6.588;2023-02-14T08:02:35;101734.84;;;4.81;100.00
38289;BME280;24092;53.370;-6.588;2023-02-14T08:05:02;101737.31;;;5.10;100.00
38289;BME280;24092;53.370;-6.588;2023-02-14T08:07:29;101742.01;;;4.75;100.00
38289;BME280;24092;53.370;-6.588;2023-02-14T08:09:56;101737.76;;;4.71;100.00
38289;BME280;24092;53.370;-6.588;2023-02-14T08:12:23;101724.50;;;5.60;100.00
38289;BME280;24092;53.370;-6.588;2023-02-14T08:14:50;101717.88;;;5.74;100.00
38289;BME280;24092;53.370;-6.588;2023-02-14T08:17:17;101711.14;;;5.79;100.00
38289;BME280;24092;53.370;-6.588;2023-02-14T08:19:44;101708.75;;;5.63;100.00
38289;BME280;24092;53.370;-6.588;2023-02-14T08:22:11;101717.22;;;5.80;100.00
38289;BME280;24092;53.370;-6.588;2023-02-14T08:24:38;101719.90;;;5.07;100.00
38289;BME280;24092;53.370;-6.588;2023-02-14T08:27:04;101723.31;;;5.23;100.00
38289;BME280;24092;53.370;-6.588;2023-02-14T08:29:31;101722.16;;;5.71;100.00
38289;BME280;24092;53.370;-6.588;2023-02-14T08:31:58;101721.98;;;5.24;100.00
38289;BME280;24092;53.370;-6.588;2023-02-14T08:34:25;101719.37;;;5.67;100.00
38289;BME280;24092;53.370;-6.588;2023-02-14T08:36:53;101719.08;;;5.23;100.00
38289;BME280;24092;53.370;-6.588;2023-02-14T08:39:21;101725.16;;;5.39;100.00
38289;BME280;24092;53.370;-6.588;2023-02-14T08:41:48;101727.01;;;6.04;100.00
38289;BME280;24092;53.370;-6.588;2023-02-14T08:44:15;101720.72;;;5.36;100.00
38289;BME280;24092;53.370;-6.588;2023-02-14T08:46:42;101712.12;;;5.68;100.00
38289;BME280;24092;53.370;-6.588;2023-02-14T08:49:09;101721.26;;;5.56;100.00
38289;BME280;24092;53.370;-6.588;2023-02-14T08:51:37;101718.63;;;5.49;100.00
38289;BME280;24092;53.370;-6.588;2023-02-14T08:54:04;101724.06;;;5.49;100.00
38289;BME280;24092;53.370;-6.588;2023-02-14T08:56:31;101722.63;;;5.65;100.00
38289;BME280;24092;53.370;-6.588;2023-02-14T08:58:58;101728.17;;;5.26;100.00
38289;BME280;24092;53.370;-6.588;2023-02-14T09:01:25;101725.13;;;5.58;100.00
38289;BME280;24092;53.370;-6.588;2023-02-14T09:03:53;101727.04;;;5.54;100.00
38289;BME280;24092;53.370;-6.588;2023-02-14T09:06:20;101728.87;;;5.66;100.00
38289;BME280;24092;53.370;-6.588;2023-02-14T09:08:47;101727.18;;;5.30;100.00
38289;BME280;24092;53.370;-6.588;2023-02-14T09:11:22;101723.89;;;5.56;100.00
38289;BME280;24092;53.370;-6.588;2023-02-14T09:13:52;101717.63;;;5.97;100.00
38289;BME280;24092;53.370;-6.588;2023-02-14T09:16:20;101722.10;;;5.97;100.00
38289;BME280;24092;53.370;-6.588;2023-02-14T09:18:49;101730.43;;;5.78;100.00
38289;BME280;24092;53.370;-6.588;2023-02-14T09:21:18;101730.33;;;6.52;100.00
38289;BME280;24092;53.370;-6.588;2023-02-14T09:23:46;101732.39;;;6.14;100.00
38289;BME280;24092;53.370;-6.588;2023-02-14T09:26:15;101736.80;;;6.27;100.00
38289;BME280;24092;53.370;-6.588;2023-02-14T09:28:43;101726.87;;;6.45;100.00
38289;BME280;24092;53.370;-6.588;2023-02-14T09:31:12;101725.12;;;6.53;100.00
38289;BME280;24092;53.370;-6.588;2023-02-14T09:33:40;101729.73;;;6.17;100.00
38289;BME280;24092;53.370;-6.588;2023-02-14T09:36:08;101723.91;;;5.89;100.00
38289;BME280;24092;53.370;-6.588;2023-02-14T09:38:36;101728.21;;;6.08;100.00
38289;BME280;24092;53.370;-6.588;2023-02-14T09:41:05;101740.71;;;5.68;100.00
38289;BME280;24092;53.370;-6.588;2023-02-14T09:43:35;101744.48;;;6.02;100.00
38289;BME280;24092;53.370;-6.588;2023-02-14T09:46:07;101742.12;;;5.99;100.00
38289;BME280;24092;53.370;-6.588;2023-02-14T09:48:39;101740.26;;;6.42;100.00
38289;BME280;24092;53.370;-6.588;2023-02-14T09:51:12;101736.63;;;5.66;100.00
38289;BME280;24092;53.370;-6.588;2023-02-14T09:53:43;101741.60;;;5.82;100.00
38289;BME280;24092;53.370;-6.588;2023-02-14T09:56:18;101739.88;;;5.67;100.00
38289;BME280;24092;53.370;-6.588;2023-02-14T09:58:52;101736.71;;;5.96;100.00
38289;BME280;24092;53.370;-6.588;2023-02-14T10:01:22;101733.97;;;5.81;100.00
38289;BME280;24092;53.370;-6.588;2023-02-14T10:04:29;101732.22;;;6.40;100.00
38289;BME280;24092;53.370;-6.588;2023-02-14T10:07:09;101726.67;;;6.50;100.00
38289;BME280;24092;53.370;-6.588;2023-02-14T10:09:48;101730.03;;;5.87;100.00
38289;BME280;24092;53.370;-6.588;2023-02-14T10:12:21;101736.23;;;5.58;100.00
38289;BME280;24092;53.370;-6.588;2023-02-14T10:14:49;101737.49;;;5.91;100.00
38289;BME280;24092;53.370;-6.588;2023-02-14T10:17:24;101735.55;;;5.71;100.00
38289;BME280;24092;53.370;-6.588;2023-02-14T10:19:57;101738.01;;;5.64;100.00
38289;BME280;24092;53.370;-6.588;2023-02-14T10:22:33;101735.12;;;5.94;100.00
38289;BME280;24092;53.370;-6.588;2023-02-14T10:25:14;101740.04;;;5.51;100.00
38289;BME280;24092;53.370;-6.588;2023-02-14T10:27:45;101730.30;;;5.77;100.00
38289;BME280;24092;53.370;-6.588;2023-02-14T10:30:15;101737.77;;;5.70;100.00
38289;BME280;24092;53.370;-6.588;2023-02-14T10:32:45;101739.50;;;5.58;100.00
38289;BME280;24092;53.370;-6.588;2023-02-14T10:35:22;101738.69;;;5.66;100.00
38289;BME280;24092;53.370;-6.588;2023-02-14T10:38:04;101732.22;;;5.82;100.00
38289;BME280;24092;53.370;-6.588;2023-02-14T10:41:02;101734.85;;;6.36;100.00
38289;BME280;24092;53.370;-6.588;2023-02-14T10:43:38;101735.18;;;7.01;100.00
38289;BME280;24092;53.370;-6.588;2023-02-14T10:46:15;101733.55;;;6.93;100.00
38289;BME280;24092;53.370;-6.588;2023-02-14T10:48:52;101732.54;;;7.27;100.00
38289;BME280;24092;53.370;-6.588;2023-02-14T10:51:27;101737.65;;;7.06;100.00
38289;BME280;24092;53.370;-6.588;2023-02-14T10:54:09;101729.80;;;6.89;100.00
38289;BME280;24092;53.370;-6.588;2023-02-14T10:56:45;101729.93;;;6.50;100.00
38289;BME280;24092;53.370;-6.588;2023-02-14T10:59:20;101732.15;;;6.08;100.00
38289;BME280;24092;53.370;-6.588;2023-02-14T11:01:49;101732.46;;;6.10;100.00
38289;BME280;24092;53.370;-6.588;2023-02-14T11:04:18;101730.58;;;6.26;100.00
38289;BME280;24092;53.370;-6.588;2023-02-14T11:06:46;101731.36;;;6.88;100.00
38289;BME280;24092;53.370;-6.588;2023-02-14T11:09:13;101729.60;;;7.03;100.00
38289;BME280;24092;53.370;-6.588;2023-02-14T11:11:44;101727.03;;;6.97;100.00
38289;BME280;24092;53.370;-6.588;2023-02-14T11:14:23;101723.63;;;7.22;100.00
38289;BME280;24092;53.370;-6.588;2023-02-14T11:16:51;101732.61;;;6.99;100.00
38289;BME280;24092;53.370;-6.588;2023-02-14T11:19:22;101727.13;;;6.31;100.00
38289;BME280;24092;53.370;-6.588;2023-02-14T11:21:51;101731.59;;;6.15;100.00
38289;BME280;24092;53.370;-6.588;2023-02-14T11:24:24;101730.07;;;6.56;100.00
38289;BME280;24092;53.370;-6.588;2023-02-14T11:26:54;101728.28;;;7.18;100.00
38289;BME280;24092;53.370;-6.588;2023-02-14T11:29:27;101731.64;;;6.44;100.00
38289;BME280;24092;53.370;-6.588;2023-02-14T11:31:55;101729.43;;;6.86;100.00
38289;BME280;24092;53.370;-6.588;2023-02-14T11:34:32;101737.31;;;6.72;100.00
38289;BME280;24092;53.370;-6.588;2023-02-14T11:37:00;101740.64;;;6.37;100.00
38289;BME280;24092;53.370;-6.588;2023-02-14T11:39:29;101736.94;;;6.30;100.00
38289;BME280;24092;53.370;-6.588;2023-02-14T11:41:59;101740.62;;;6.92;100.00
38289;BME280;24092;53.370;-6.588;2023-02-14T11:44:29;101742.90;;;7.07;100.00
38289;BME280;24092;53.370;-6.588;2023-02-14T11:47:16;101748.57;;;6.77;100.00
38289;BME280;24092;53.370;-6.588;2023-02-14T11:49:54;101738.00;;;6.31;100.00
38289;BME280;24092;53.370;-6.588;2023-02-14T11:52:21;101730.57;;;5.69;100.00
38289;BME280;24092;53.370;-6.588;2023-02-14T11:54:49;101725.25;;;5.90;100.00
38289;BME280;24092;53.370;-6.588;2023-02-14T11:57:21;101725.16;;;6.12;100.00
38289;BME280;24092;53.370;-6.588;2023-02-14T11:59:51;101716.52;;;7.06;100.00
38289;BME280;24092;53.370;-6.588;2023-02-14T12:02:24;101711.80;;;6.45;100.00
38289;BME280;24092;53.370;-6.588;2023-02-14T12:04:55;101709.11;;;6.56;100.00
38289;BME280;24092;53.370;-6.588;2023-02-14T12:07:26;101698.74;;;6.89;100.00
38289;BME280;24092;53.370;-6.588;2023-02-14T12:10:19;101694.47;;;6.90;100.00
38289;BME280;24092;53.370;-6.588;2023-02-14T12:12:50;101685.36;;;6.38;100.00
38289;BME280;24092;53.370;-6.588;2023-02-14T12:15:26;101687.15;;;6.59;100.00
38289;BME280;24092;53.370;-6.588;2023-02-14T12:17:59;101679.23;;;6.39;100.00
38289;BME280;24092;53.370;-6.588;2023-02-14T12:20:37;101671.98;;;6.19;100.00
38289;BME280;24092;53.370;-6.588;2023-02-14T12:23:12;101663.92;;;6.55;100.00
38289;BME280;24092;53.370;-6.588;2023-02-14T12:25:47;101667.31;;;6.66;100.00
38289;BME280;24092;53.370;-6.588;2023-02-14T12:28:20;101661.88;;;6.27;100.00
38289;BME280;24092;53.370;-6.588;2023-02-14T12:30:49;101659.71;;;6.42;100.00
38289;BME280;24092;53.370;-6.588;2023-02-14T12:33:19;101660.26;;;6.54;100.00
38289;BME280;24092;53.370;-6.588;2023-02-14T12:35:54;101649.19;;;6.66;100.00
38289;BME280;24092;53.370;-6.588;2023-02-14T12:38:37;101651.61;;;6.71;100.00
38289;BME280;24092;53.370;-6.588;2023-02-14T12:41:19;101646.32;;;6.73;100.00
38289;BME280;24092;53.370;-6.588;2023-02-14T12:43:52;101636.32;;;6.61;100.00
38289;BME280;24092;53.370;-6.588;2023-02-14T12:47:04;101634.40;;;6.36;100.00
38289;BME280;24092;53.370;-6.588;2023-02-14T12:49:49;101634.03;;;6.66;100.00
38289;BME280;24092;53.370;-6.588;2023-02-14T12:52:37;101631.04;;;6.67;100.00
38289;BME280;24092;53.370;-6.588;2023-02-14T12:55:24;101621.40;;;7.21;100.00
38289;BME280;24092;53.370;-6.588;2023-02-14T12:57:59;101614.00;;;7.41;100.00
38289;BME280;24092;53.370;-6.588;2023-02-14T13:00:35;101619.47;;;7.27;100.00
38289;BME280;24092;53.370;-6.588;2023-02-14T13:03:22;101614.26;;;7.26;100.00